Time;durP1;ratioP1;P1;durP2;ratioP2;P2;SDS_P1;SDS_P2;PMS_P1;PMS_P2;Temp;Humidity;BMP_temperature;BMP_pressure;BME280_temperature;BME280_humidity;BME280_pressure;Samples;Min_cycle;Max_cycle;Signal;HPM_P1;HPM_P2
2020/12/31 00:01:49;;;;;;;0.00;0.00;;;;;;;;;;5069011;28;20222;-63
2020/12/31 00:04:16;;;;;;;2.97;2.13;;;;;;;;;;5067964;28;20531;-62
2020/12/31 00:06:42;;;;;;;0.10;0.10;;;;;;;;;;5064193;28;20190;-63
2020/12/31 00:09:10;;;;;;;0.20;0.20;;;;;;;;;;5072450;28;20249;-62
2020/12/31 00:11:36;;;;;;;0.30;0.30;;;;;;;;;;5062666;28;20750;-61
2020/12/31 00:14:07;;;;;;;7.53;0.80;;;;;;;;;;5063896;28;20313;-64
2020/12/31 00:16:38;;;;;;;0.00;0.00;;;;;;;;;;5069443;28;20914;-63
2020/12/31 00:19:05;;;;;;;11.87;0.53;;;;;;;;;;5070451;28;20628;-63
2020/12/31 00:21:32;;;;;;;2.30;1.37;;;;;;;;;;5076844;28;20636;-64
2020/12/31 00:23:59;;;;;;;0.30;0.30;;;;;;;;;;5076666;28;20221;-63
2020/12/31 00:26:26;;;;;;;1.50;0.70;;;;;;;;;;5073258;28;20213;-62
2020/12/31 00:28:52;;;;;;;0.00;0.00;;;;;;;;;;5076628;28;20619;-62
2020/12/31 00:31:19;;;;;;;2.53;0.40;;;;;;;;;;5065761;28;20183;-62
2020/12/31 00:33:46;;;;;;;3.90;1.37;;;;;;;;;;5072101;28;20189;-62
2020/12/31 00:36:16;;;;;;;6.63;0.10;;;;;;;;;;5075809;28;20186;-63
2020/12/31 00:38:42;;;;;;;0.73;0.57;;;;;;;;;;5069867;28;20194;-62
2020/12/31 00:41:09;;;;;;;1.90;0.60;;;;;;;;;;5067261;28;20367;-62
2020/12/31 00:43:36;;;;;;;0.67;0.67;;;;;;;;;;5071581;28;20186;-62
2020/12/31 00:46:03;;;;;;;0.97;0.40;;;;;;;;;;5076346;28;20274;-64
2020/12/31 00:48:30;;;;;;;4.47;3.10;;;;;;;;;;5072050;28;20248;-64
2020/12/31 00:50:59;;;;;;;0.57;0.03;;;;;;;;;;5076734;28;20753;-63
2020/12/31 00:53:26;;;;;;;7.77;3.50;;;;;;;;;;5069888;28;20199;-64
2020/12/31 00:55:53;;;;;;;0.43;0.43;;;;;;;;;;5063865;28;20233;-61
2020/12/31 00:58:19;;;;;;;4.57;1.30;;;;;;;;;;5070263;28;20661;-63
2020/12/31 01:00:46;;;;;;;1.80;0.50;;;;;;;;;;5071999;28;20188;-62
2020/12/31 01:03:15;;;;;;;0.00;0.00;;;;;;;;;;5067912;28;20186;-63
2020/12/31 01:05:41;;;;;;;0.10;0.10;;;;;;;;;;5063182;28;20398;-64
2020/12/31 01:08:08;;;;;;;0.03;0.03;;;;;;;;;;5061757;28;20242;-63
2020/12/31 01:10:34;;;;;;;0.80;0.33;;;;;;;;;;5067726;28;20194;-63
2020/12/31 01:13:01;;;;;;;2.00;1.77;;;;;;;;;;5067788;28;20185;-62
2020/12/31 01:15:28;;;;;;;3.60;1.77;;;;;;;;;;5066392;28;20785;-64
2020/12/31 01:17:55;;;;;;;0.00;0.00;;;;;;;;;;5064248;28;20189;-63
2020/12/31 01:20:22;;;;;;;0.10;0.10;;;;;;;;;;5069074;28;20213;-62
2020/12/31 01:22:48;;;;;;;4.57;0.57;;;;;;;;;;5066889;28;20593;-62
2020/12/31 01:25:15;;;;;;;0.77;0.10;;;;;;;;;;5073010;28;20182;-61
2020/12/31 01:27:41;;;;;;;0.23;0.10;;;;;;;;;;5073380;28;21078;-63
2020/12/31 01:30:08;;;;;;;0.00;0.00;;;;;;;;;;5066619;28;20936;-64
2020/12/31 01:32:34;;;;;;;2.57;1.00;;;;;;;;;;5069976;28;20212;-63
2020/12/31 01:35:01;;;;;;;2.33;0.93;;;;;;;;;;5073694;28;20747;-62
2020/12/31 01:37:28;;;;;;;9.33;1.63;;;;;;;;;;5065143;28;20195;-63
2020/12/31 01:39:54;;;;;;;1.20;0.20;;;;;;;;;;5066951;28;20513;-62
2020/12/31 01:42:21;;;;;;;4.60;0.83;;;;;;;;;;5067704;28;20203;-64
2020/12/31 01:44:48;;;;;;;0.77;0.77;;;;;;;;;;5068659;28;20616;-62
2020/12/31 01:47:16;;;;;;;0.37;0.37;;;;;;;;;;5067174;28;20716;-63
2020/12/31 01:49:43;;;;;;;0.03;0.03;;;;;;;;;;5061495;28;20226;-63
2020/12/31 01:52:13;;;;;;;0.13;0.10;;;;;;;;;;5071709;28;20189;-62
2020/12/31 01:54:40;;;;;;;0.30;0.00;;;;;;;;;;5064284;28;20182;-63
2020/12/31 01:57:09;;;;;;;0.63;0.10;;;;;;;;;;5066028;28;20217;-62
2020/12/31 01:59:36;;;;;;;0.10;0.10;;;;;;;;;;5065041;28;20187;-62
2020/12/31 02:02:02;;;;;;;0.10;0.10;;;;;;;;;;5071473;28;20230;-64
2020/12/31 02:04:29;;;;;;;0.83;0.30;;;;;;;;;;5077165;28;20222;-63
2020/12/31 02:06:56;;;;;;;2.50;2.17;;;;;;;;;;5070295;28;20185;-62
2020/12/31 02:09:23;;;;;;;0.03;0.03;;;;;;;;;;5073745;28;20252;-63
2020/12/31 02:11:49;;;;;;;0.00;0.00;;;;;;;;;;5065969;28;20362;-62
2020/12/31 02:14:16;;;;;;;1.53;0.63;;;;;;;;;;5064395;28;20186;-61
2020/12/31 02:16:43;;;;;;;8.33;1.33;;;;;;;;;;5070028;28;20269;-62
2020/12/31 02:19:14;;;;;;;2.10;0.90;;;;;;;;;;5066798;28;20189;-62
2020/12/31 02:21:44;;;;;;;3.63;1.43;;;;;;;;;;5069500;28;20647;-63
2020/12/31 02:24:11;;;;;;;0.00;0.00;;;;;;;;;;5071010;28;20219;-61
2020/12/31 02:26:38;;;;;;;7.23;0.67;;;;;;;;;;5075851;28;20189;-63
2020/12/31 02:29:07;;;;;;;2.53;1.13;;;;;;;;;;5072701;28;20336;-62
2020/12/31 02:31:34;;;;;;;4.60;0.93;;;;;;;;;;5077505;28;20285;-61
2020/12/31 02:34:01;;;;;;;1.07;0.70;;;;;;;;;;5072881;28;20196;-63
2020/12/31 02:36:29;;;;;;;2.23;0.60;;;;;;;;;;5065909;28;20196;-61
2020/12/31 02:38:58;;;;;;;0.00;0.00;;;;;;;;;;5072814;28;20218;-62
2020/12/31 02:41:25;;;;;;;0.63;0.30;;;;;;;;;;5060531;28;20177;-62
2020/12/31 02:43:52;;;;;;;1.63;0.50;;;;;;;;;;5067581;28;20188;-63
2020/12/31 02:46:22;;;;;;;3.20;1.10;;;;;;;;;;5075487;28;20185;-64
2020/12/31 02:48:50;;;;;;;3.97;3.77;;;;;;;;;;5072445;28;20229;-64
2020/12/31 02:51:17;;;;;;;4.63;0.70;;;;;;;;;;5066456;28;20275;-61
2020/12/31 02:53:44;;;;;;;6.03;1.37;;;;;;;;;;5068011;28;20837;-61
2020/12/31 02:56:17;;;;;;;17.23;8.43;;;;;;;;;;5063962;28;20186;-63
2020/12/31 02:58:44;;;;;;;5.20;1.23;;;;;;;;;;5065977;28;20189;-63
2020/12/31 03:01:12;;;;;;;1.83;1.10;;;;;;;;;;5072733;28;20181;-63
2020/12/31 03:03:39;;;;;;;9.73;3.77;;;;;;;;;;5073556;28;20682;-63
2020/12/31 03:06:06;;;;;;;1.40;0.50;;;;;;;;;;5068939;28;20878;-62
2020/12/31 03:08:33;;;;;;;0.57;0.57;;;;;;;;;;5068510;28;20752;-63
2020/12/31 03:11:00;;;;;;;1.07;0.80;;;;;;;;;;5073040;28;20185;-62
2020/12/31 03:13:29;;;;;;;0.83;0.83;;;;;;;;;;5065629;28;20197;-62
2020/12/31 03:15:56;;;;;;;3.10;0.87;;;;;;;;;;5069602;28;20194;-62
2020/12/31 03:18:23;;;;;;;3.20;0.77;;;;;;;;;;5072088;28;20250;-63
2020/12/31 03:20:50;;;;;;;5.13;0.60;;;;;;;;;;5063420;28;20185;-63
2020/12/31 03:23:17;;;;;;;5.17;1.00;;;;;;;;;;5069356;28;20193;-65
2020/12/31 03:25:44;;;;;;;0.43;0.30;;;;;;;;;;5069552;28;20206;-63
2020/12/31 03:28:14;;;;;;;4.07;0.20;;;;;;;;;;5070248;28;20735;-62
2020/12/31 03:30:42;;;;;;;2.40;0.37;;;;;;;;;;5063947;28;20310;-62
2020/12/31 03:33:14;;;;;;;0.27;0.27;;;;;;;;;;5066973;28;20185;-64
2020/12/31 03:35:46;;;;;;;7.67;6.90;;;;;;;;;;5065746;28;20182;-63
2020/12/31 03:38:13;;;;;;;3.80;0.63;;;;;;;;;;5065001;28;20792;-63
2020/12/31 03:40:40;;;;;;;0.57;0.53;;;;;;;;;;5066493;28;20240;-64
2020/12/31 14:07:10;;;;;;;4.27;0.87;;;;;;;;;;5114191;27;20680;-63
2020/12/31 14:09:37;;;;;;;0.50;0.50;;;;;;;;;;5117213;28;20195;-63
2020/12/31 14:12:04;;;;;;;1.30;0.30;;;;;;;;;;5115447;27;20900;-64
2020/12/31 14:14:30;;;;;;;4.67;1.43;;;;;;;;;;5119117;27;20215;-66
2020/12/31 14:16:58;;;;;;;4.33;1.67;;;;;;;;;;5119760;27;20188;-64
2020/12/31 14:19:25;;;;;;;0.33;0.33;;;;;;;;;;5115360;27;20185;-65
2020/12/31 14:21:51;;;;;;;5.90;0.57;;;;;;;;;;5121129;27;20202;-63
2020/12/31 14:24:18;;;;;;;0.10;0.10;;;;;;;;;;5115410;27;20180;-64
2020/12/31 14:26:45;;;;;;;4.37;1.27;;;;;;;;;;5121336;27;20215;-64
2020/12/31 14:29:12;;;;;;;1.23;0.50;;;;;;;;;;5118799;27;20661;-63
2020/12/31 14:31:40;;;;;;;5.53;0.27;;;;;;;;;;5116209;27;20188;-63
2020/12/31 14:34:07;;;;;;;11.03;5.07;;;;;;;;;;5113510;28;20177;-64
2020/12/31 14:36:45;;;;;;;0.37;0.27;;;;;;;;;;5115815;27;20241;-64
2020/12/31 14:39:13;;;;;;;0.70;0.23;;;;;;;;;;5117372;27;20300;-64
2020/12/31 14:41:40;;;;;;;1.40;0.10;;;;;;;;;;5122149;27;20178;-64
2020/12/31 14:44:07;;;;;;;2.37;0.57;;;;;;;;;;5116920;28;20184;-64
2020/12/31 14:46:35;;;;;;;0.00;0.00;;;;;;;;;;5117849;27;20663;-64
2020/12/31 14:49:01;;;;;;;2.40;1.00;;;;;;;;;;5116212;27;20173;-63
2020/12/31 14:51:29;;;;;;;6.70;0.73;;;;;;;;;;5115635;27;20173;-64
2020/12/31 14:53:58;;;;;;;1.50;0.67;;;;;;;;;;5111716;27;20173;-64
2020/12/31 14:56:26;;;;;;;6.13;2.97;;;;;;;;;;5107348;28;20189;-65
2020/12/31 14:58:52;;;;;;;3.30;0.50;;;;;;;;;;5116536;28;20283;-63
2020/12/31 15:01:19;;;;;;;2.83;1.30;;;;;;;;;;5115204;28;20177;-62
2020/12/31 15:03:46;;;;;;;4.10;1.03;;;;;;;;;;5115465;27;20189;-63
2020/12/31 15:06:13;;;;;;;3.90;0.77;;;;;;;;;;5120226;27;20319;-63
2020/12/31 15:08:41;;;;;;;1.57;0.50;;;;;;;;;;5113389;27;20177;-63
2020/12/31 15:11:11;;;;;;;0.03;0.03;;;;;;;;;;5117516;28;20733;-62
2020/12/31 15:13:38;;;;;;;1.13;0.93;;;;;;;;;;5112259;28;20178;-62
2020/12/31 15:16:05;;;;;;;1.30;0.83;;;;;;;;;;5114791;27;20292;-62
2020/12/31 15:18:37;;;;;;;1.50;0.57;;;;;;;;;;5096824;28;20188;-63
2020/12/31 15:21:05;;;;;;;0.47;0.47;;;;;;;;;;5098707;28;20261;-63
2020/12/31 15:23:32;;;;;;;0.83;0.67;;;;;;;;;;5101270;28;20647;-64
2020/12/31 15:25:59;;;;;;;2.33;0.90;;;;;;;;;;5098109;27;20304;-63
2020/12/31 15:28:25;;;;;;;1.10;0.27;;;;;;;;;;5095680;27;20202;-64
2020/12/31 15:30:52;;;;;;;6.10;1.30;;;;;;;;;;5094770;28;20191;-62
2020/12/31 15:33:19;;;;;;;3.20;0.80;;;;;;;;;;5100878;27;20185;-61
2020/12/31 15:35:46;;;;;;;4.13;3.13;;;;;;;;;;5099407;27;20199;-64
2020/12/31 15:38:13;;;;;;;4.17;1.30;;;;;;;;;;5096884;28;20181;-61
2020/12/31 15:40:39;;;;;;;1.93;0.43;;;;;;;;;;5101155;27;20186;-64
2020/12/31 15:43:06;;;;;;;0.40;0.33;;;;;;;;;;5100850;28;20189;-63
2020/12/31 15:45:32;;;;;;;2.90;0.50;;;;;;;;;;5093502;28;20217;-64
2020/12/31 15:47:59;;;;;;;1.13;0.47;;;;;;;;;;5097470;27;20239;-64
2020/12/31 15:50:26;;;;;;;3.40;2.67;;;;;;;;;;5106813;27;20193;-64
2020/12/31 15:52:54;;;;;;;2.30;0.60;;;;;;;;;;5102953;27;20181;-62
2020/12/31 15:55:22;;;;;;;1.60;0.67;;;;;;;;;;5102597;27;20190;-64
2020/12/31 15:57:48;;;;;;;1.03;0.53;;;;;;;;;;5100941;27;20199;-63
2020/12/31 16:00:16;;;;;;;1.47;0.43;;;;;;;;;;5094959;28;20184;-63
2020/12/31 16:02:43;;;;;;;0.30;0.30;;;;;;;;;;5094590;28;20908;-64
2020/12/31 16:05:10;;;;;;;3.07;1.03;;;;;;;;;;5101724;27;20957;-63
2020/12/31 16:07:38;;;;;;;2.93;0.20;;;;;;;;;;5089799;28;20631;-62
2020/12/31 16:10:05;;;;;;;4.50;1.10;;;;;;;;;;5094880;27;20204;-64
2020/12/31 16:12:31;;;;;;;1.90;0.80;;;;;;;;;;5091621;28;20929;-63
2020/12/31 16:14:58;;;;;;;3.50;0.47;;;;;;;;;;5092638;28;20277;-65
2020/12/31 16:17:29;;;;;;;4.30;1.10;;;;;;;;;;5094023;28;20253;-63
2020/12/31 16:19:59;;;;;;;2.73;0.40;;;;;;;;;;5093018;28;20204;-64
2020/12/31 16:22:26;;;;;;;4.97;0.80;;;;;;;;;;5091900;28;20181;-63
2020/12/31 16:24:53;;;;;;;1.03;0.30;;;;;;;;;;5102819;27;20707;-62
2020/12/31 16:27:24;;;;;;;1.90;1.27;;;;;;;;;;5098890;27;20177;-64
2020/12/31 16:29:50;;;;;;;6.40;0.57;;;;;;;;;;5094261;28;20813;-64
2020/12/31 16:32:17;;;;;;;3.30;0.30;;;;;;;;;;5097872;27;20217;-63
2020/12/31 16:34:44;;;;;;;2.30;2.10;;;;;;;;;;5096262;27;20189;-64
2020/12/31 16:37:12;;;;;;;0.20;0.20;;;;;;;;;;5100779;28;20207;-64
2020/12/31 16:39:41;;;;;;;7.10;1.73;;;;;;;;;;5099038;28;20292;-64
2020/12/31 16:42:07;;;;;;;5.70;1.07;;;;;;;;;;5101410;28;20603;-63
2020/12/31 16:44:34;;;;;;;0.97;0.97;;;;;;;;;;5096446;27;20181;-64
2020/12/31 16:47:00;;;;;;;7.13;6.67;;;;;;;;;;5099277;28;20220;-65
2020/12/31 16:49:27;;;;;;;4.53;2.00;;;;;;;;;;5095254;27;20198;-64
2020/12/31 16:51:54;;;;;;;5.20;1.53;;;;;;;;;;5099077;27;20196;-65
2020/12/31 16:54:21;;;;;;;2.33;1.23;;;;;;;;;;5110817;27;20184;-65
2020/12/31 16:57:01;;;;;;;0.10;0.10;;;;;;;;;;5102097;27;20511;-65
2020/12/31 16:59:27;;;;;;;3.47;1.03;;;;;;;;;;5100245;28;20282;-64
2020/12/31 17:01:58;;;;;;;0.37;0.37;;;;;;;;;;5098001;28;20186;-66
2020/12/31 17:04:25;;;;;;;16.63;1.87;;;;;;;;;;5103381;27;20234;-64
2020/12/31 17:06:51;;;;;;;2.20;1.03;;;;;;;;;;5101543;27;20892;-63
2020/12/31 17:09:18;;;;;;;1.80;0.73;;;;;;;;;;5099630;28;20182;-65
2020/12/31 17:11:45;;;;;;;0.40;0.40;;;;;;;;;;5101505;27;20717;-65
2020/12/31 17:14:12;;;;;;;3.10;0.37;;;;;;;;;;5100747;28;20951;-64
2020/12/31 17:16:46;;;;;;;6.03;0.83;;;;;;;;;;5099727;28;20201;-63
2020/12/31 17:19:14;;;;;;;1.97;0.30;;;;;;;;;;5099648;28;20181;-63
2020/12/31 17:21:42;;;;;;;1.97;0.40;;;;;;;;;;5102055;27;20177;-65
2020/12/31 17:24:10;;;;;;;0.93;0.50;;;;;;;;;;5102844;27;20200;-64
2020/12/31 17:26:39;;;;;;;7.33;1.50;;;;;;;;;;5102895;27;20201;-63
2020/12/31 17:29:06;;;;;;;3.07;0.90;;;;;;;;;;5100460;27;20630;-65
2020/12/31 17:31:34;;;;;;;1.10;1.10;;;;;;;;;;5099518;28;20775;-64
2020/12/31 17:34:00;;;;;;;1.40;0.10;;;;;;;;;;5094372;28;20285;-64
2020/12/31 17:36:28;;;;;;;1.07;0.93;;;;;;;;;;5102050;27;20277;-63
2020/12/31 17:38:54;;;;;;;1.60;0.20;;;;;;;;;;5099305;27;20189;-64
2020/12/31 17:41:22;;;;;;;2.27;1.03;;;;;;;;;;5091649;28;20186;-64
2020/12/31 17:43:49;;;;;;;0.93;0.40;;;;;;;;;;5095294;28;20565;-63
2020/12/31 17:46:17;;;;;;;7.30;0.80;;;;;;;;;;5095478;28;21082;-62
2020/12/31 17:48:45;;;;;;;1.83;1.43;;;;;;;;;;5107067;27;20187;-64
2020/12/31 17:51:12;;;;;;;5.70;5.20;;;;;;;;;;5098956;28;20640;-63
2020/12/31 17:53:39;;;;;;;0.40;0.40;;;;;;;;;;5099720;27;20201;-62
2020/12/31 17:56:05;;;;;;;0.97;0.40;;;;;;;;;;5095610;28;20221;-65
2020/12/31 17:58:32;;;;;;;0.20;0.20;;;;;;;;;;5096785;28;20189;-63
2020/12/31 18:00:59;;;;;;;5.50;0.53;;;;;;;;;;5099410;28;20190;-63
2020/12/31 18:03:25;;;;;;;2.50;1.00;;;;;;;;;;5101437;28;20302;-62
2020/12/31 18:05:53;;;;;;;5.43;0.97;;;;;;;;;;5094476;28;20265;-63
2020/12/31 18:08:20;;;;;;;0.50;0.37;;;;;;;;;;5097883;28;20196;-62
2020/12/31 18:10:46;;;;;;;1.07;0.53;;;;;;;;;;5098583;28;20185;-62
2020/12/31 18:13:13;;;;;;;1.23;0.83;;;;;;;;;;5098024;28;20182;-63
2020/12/31 18:15:40;;;;;;;2.57;1.10;;;;;;;;;;5094231;28;20201;-64
2020/12/31 18:18:06;;;;;;;1.30;0.83;;;;;;;;;;5103292;28;20827;-63
2020/12/31 18:20:33;;;;;;;29.23;1.67;;;;;;;;;;5104240;28;20994;-62
2020/12/31 18:23:00;;;;;;;2.43;1.07;;;;;;;;;;5098628;28;20228;-62
2020/12/31 18:25:26;;;;;;;2.33;0.83;;;;;;;;;;5102357;28;20209;-64
2020/12/31 18:27:53;;;;;;;1.57;0.50;;;;;;;;;;5102768;28;20185;-62
2020/12/31 18:30:20;;;;;;;1.87;0.80;;;;;;;;;;5100278;28;20185;-64
2020/12/31 18:32:47;;;;;;;4.60;0.60;;;;;;;;;;5098785;28;20286;-62
2020/12/31 18:35:15;;;;;;;1.57;0.50;;;;;;;;;;5099639;28;20721;-63
2020/12/31 18:37:45;;;;;;;4.33;0.60;;;;;;;;;;5100171;28;20185;-62
2020/12/31 18:40:13;;;;;;;2.80;1.57;;;;;;;;;;5094163;28;21769;-63
2020/12/31 18:42:43;;;;;;;0.10;0.10;;;;;;;;;;5092711;28;20195;-65
2020/12/31 18:45:10;;;;;;;6.07;5.57;;;;;;;;;;5095900;28;20209;-64
2020/12/31 18:47:37;;;;;;;1.63;0.77;;;;;;;;;;5090569;28;20667;-63
2020/12/31 18:50:04;;;;;;;1.07;0.27;;;;;;;;;;5098723;28;20218;-65
2020/12/31 18:52:31;;;;;;;0.77;0.70;;;;;;;;;;5094832;28;20214;-64
2020/12/31 18:54:57;;;;;;;0.10;0.10;;;;;;;;;;5102705;27;20686;-63
2020/12/31 18:57:24;;;;;;;8.67;0.70;;;;;;;;;;5101330;27;20182;-63
2020/12/31 18:59:51;;;;;;;4.17;0.90;;;;;;;;;;5101928;28;20561;-64
2020/12/31 19:02:17;;;;;;;3.93;1.40;;;;;;;;;;5102115;28;20231;-63
2020/12/31 19:04:44;;;;;;;1.80;0.53;;;;;;;;;;5100590;28;20185;-62
2020/12/31 19:07:11;;;;;;;0.27;0.13;;;;;;;;;;5104985;27;20260;-61
2020/12/31 19:09:38;;;;;;;3.87;3.00;;;;;;;;;;5101141;28;20189;-61
2020/12/31 19:12:05;;;;;;;18.03;0.73;;;;;;;;;;5101275;28;20912;-62
2020/12/31 19:14:31;;;;;;;1.90;0.83;;;;;;;;;;5103433;28;20305;-61
2020/12/31 19:16:58;;;;;;;2.43;0.53;;;;;;;;;;5101326;28;20193;-61
2020/12/31 19:19:25;;;;;;;2.63;0.97;;;;;;;;;;5095554;28;20182;-61
2020/12/31 19:21:52;;;;;;;2.00;0.97;;;;;;;;;;5100599;28;20802;-61
2020/12/31 19:24:19;;;;;;;4.03;2.50;;;;;;;;;;5104208;27;20210;-61
2020/12/31 19:26:47;;;;;;;3.83;1.23;;;;;;;;;;5104363;27;20274;-62
2020/12/31 19:29:14;;;;;;;6.20;0.63;;;;;;;;;;5102056;28;20181;-61
2020/12/31 19:31:42;;;;;;;2.30;2.20;;;;;;;;;;5091908;28;20174;-64
2020/12/31 19:34:09;;;;;;;1.60;0.73;;;;;;;;;;5098721;28;20182;-63
2020/12/31 19:36:42;;;;;;;5.43;0.67;;;;;;;;;;5103675;27;20182;-63
2020/12/31 19:39:09;;;;;;;8.20;1.80;;;;;;;;;;5105084;27;20177;-63
2020/12/31 19:41:36;;;;;;;5.10;0.87;;;;;;;;;;5101809;28;20181;-65
2020/12/31 19:44:07;;;;;;;5.23;1.73;;;;;;;;;;5101718;28;20330;-63
2020/12/31 19:46:34;;;;;;;0.60;0.33;;;;;;;;;;5100525;27;20675;-64
2020/12/31 19:49:00;;;;;;;2.23;1.20;;;;;;;;;;5099959;27;20660;-65
2020/12/31 19:51:37;;;;;;;3.80;0.87;;;;;;;;;;5099982;27;20177;-62
2020/12/31 19:54:04;;;;;;;2.20;0.77;;;;;;;;;;5099696;28;20180;-64
2020/12/31 19:56:30;;;;;;;1.23;0.30;;;;;;;;;;5102674;27;20193;-64
2020/12/31 19:58:57;;;;;;;1.83;0.70;;;;;;;;;;5101467;28;20193;-63
2020/12/31 20:01:25;;;;;;;1.63;0.50;;;;;;;;;;5102477;28;20245;-64
2020/12/31 20:03:51;;;;;;;3.83;1.07;;;;;;;;;;5101061;27;20182;-66
2020/12/31 20:06:19;;;;;;;3.90;0.93;;;;;;;;;;5100223;28;20232;-64
2020/12/31 20:08:45;;;;;;;2.00;0.67;;;;;;;;;;5100820;28;20202;-66
2020/12/31 20:11:12;;;;;;;3.50;2.13;;;;;;;;;;5091977;28;20943;-64
2020/12/31 20:13:39;;;;;;;6.23;0.20;;;;;;;;;;5095677;27;21033;-63
2020/12/31 20:16:10;;;;;;;1.90;1.63;;;;;;;;;;5101916;27;20275;-66
2020/12/31 20:18:36;;;;;;;0.00;0.00;;;;;;;;;;5097196;27;20640;-66
2020/12/31 20:21:07;;;;;;;3.43;1.83;;;;;;;;;;5100987;28;20681;-64
2020/12/31 20:23:35;;;;;;;0.00;0.00;;;;;;;;;;5098946;27;20192;-66
2020/12/31 20:26:02;;;;;;;0.30;0.20;;;;;;;;;;5100804;28;20266;-64
2020/12/31 20:28:33;;;;;;;8.20;1.63;;;;;;;;;;5100721;28;20984;-64
2020/12/31 20:31:00;;;;;;;2.10;0.83;;;;;;;;;;5100316;28;20299;-65
2020/12/31 20:33:26;;;;;;;2.63;1.20;;;;;;;;;;5099863;27;20188;-65
2020/12/31 20:35:53;;;;;;;9.80;1.40;;;;;;;;;;5099796;27;20204;-63
2020/12/31 20:38:20;;;;;;;0.13;0.13;;;;;;;;;;5099243;28;20198;-64
2020/12/31 20:40:46;;;;;;;0.13;0.13;;;;;;;;;;5091087;28;20326;-64
2020/12/31 20:43:13;;;;;;;14.40;1.33;;;;;;;;;;5100272;28;20211;-64
2020/12/31 20:45:39;;;;;;;5.87;0.57;;;;;;;;;;5095225;27;20204;-63
2020/12/31 20:48:06;;;;;;;2.07;1.90;;;;;;;;;;5098638;27;20192;-65
2020/12/31 20:50:33;;;;;;;0.33;0.30;;;;;;;;;;5096515;28;20200;-66
2020/12/31 20:53:00;;;;;;;1.30;0.53;;;;;;;;;;5101032;27;20188;-64
2020/12/31 20:55:26;;;;;;;1.17;0.53;;;;;;;;;;5099103;28;20274;-64
2020/12/31 20:57:53;;;;;;;4.03;1.50;;;;;;;;;;5095433;28;20183;-63
2020/12/31 21:00:20;;;;;;;0.30;0.20;;;;;;;;;;5102844;27;20178;-63
2020/12/31 21:02:47;;;;;;;19.47;1.57;;;;;;;;;;5097403;27;20193;-62
2020/12/31 21:05:15;;;;;;;0.00;0.00;;;;;;;;;;5097874;28;20785;-63
2020/12/31 21:07:41;;;;;;;1.93;0.50;;;;;;;;;;5095022;28;20189;-65
2020/12/31 21:10:09;;;;;;;3.00;0.67;;;;;;;;;;5094557;28;20188;-62
2020/12/31 21:12:35;;;;;;;4.57;1.90;;;;;;;;;;5099191;28;20215;-65
2020/12/31 21:15:02;;;;;;;0.67;0.30;;;;;;;;;;5107318;27;20185;-64
2020/12/31 21:17:29;;;;;;;1.30;1.23;;;;;;;;;;5094725;27;20217;-63
2020/12/31 21:19:55;;;;;;;3.50;0.77;;;;;;;;;;5093769;28;20907;-64
2020/12/31 21:22:22;;;;;;;0.00;0.00;;;;;;;;;;5097320;28;20192;-65
2020/12/31 21:24:50;;;;;;;1.57;0.27;;;;;;;;;;5097175;27;20192;-61
2020/12/31 21:27:17;;;;;;;1.83;0.43;;;;;;;;;;5096893;28;20192;-64
2020/12/31 21:29:44;;;;;;;5.50;1.03;;;;;;;;;;5097376;28;20177;-64
2020/12/31 21:32:10;;;;;;;0.80;0.20;;;;;;;;;;5088998;28;21266;-65
2020/12/31 21:34:37;;;;;;;12.83;4.77;;;;;;;;;;5094826;28;20199;-62
2020/12/31 21:37:03;;;;;;;18.63;1.97;;;;;;;;;;5094518;28;20219;-65
2020/12/31 21:39:31;;;;;;;13.17;5.13;;;;;;;;;;5090990;27;20215;-65
2020/12/31 21:41:58;;;;;;;1.73;1.13;;;;;;;;;;5097864;27;20180;-63
2020/12/31 21:44:24;;;;;;;3.53;0.70;;;;;;;;;;5096321;27;20625;-66
2020/12/31 21:46:51;;;;;;;1.70;0.83;;;;;;;;;;5103776;27;20991;-63
2020/12/31 21:49:19;;;;;;;0.10;0.10;;;;;;;;;;5101383;27;20181;-63
2020/12/31 21:51:46;;;;;;;7.37;3.47;;;;;;;;;;5092572;28;20189;-64
2020/12/31 21:54:12;;;;;;;2.43;0.70;;;;;;;;;;5099587;27;20177;-63
2020/12/31 21:56:40;;;;;;;5.77;1.17;;;;;;;;;;5099484;28;20193;-64
2020/12/31 21:59:06;;;;;;;0.73;0.20;;;;;;;;;;5098072;27;20208;-65
2020/12/31 22:01:33;;;;;;;2.63;1.30;;;;;;;;;;5093576;28;20740;-64
2020/12/31 22:04:01;;;;;;;0.93;0.43;;;;;;;;;;5091872;28;20308;-64
2020/12/31 22:06:28;;;;;;;1.00;0.17;;;;;;;;;;5093195;28;20236;-63
2020/12/31 22:08:54;;;;;;;1.63;1.50;;;;;;;;;;5091591;28;20188;-63
2020/12/31 22:11:21;;;;;;;0.20;0.20;;;;;;;;;;5095740;28;20483;-63
2020/12/31 22:13:48;;;;;;;1.43;0.37;;;;;;;;;;5094131;28;20189;-64
2020/12/31 22:16:18;;;;;;;0.53;0.33;;;;;;;;;;5095044;28;20185;-64
2020/12/31 22:18:45;;;;;;;2.47;2.33;;;;;;;;;;5088815;28;20189;-65
2020/12/31 22:21:12;;;;;;;0.00;0.00;;;;;;;;;;5091625;28;20205;-65
2020/12/31 22:23:38;;;;;;;1.50;0.83;;;;;;;;;;5091629;28;20297;-65
2020/12/31 22:26:09;;;;;;;6.60;0.73;;;;;;;;;;5092906;28;20204;-66
2020/12/31 22:28:35;;;;;;;3.40;0.87;;;;;;;;;;5099040;28;20193;-65
2020/12/31 22:31:02;;;;;;;6.90;3.77;;;;;;;;;;5097274;27;20186;-64
2020/12/31 22:33:29;;;;;;;2.73;2.00;;;;;;;;;;5097235;28;20284;-65
2020/12/31 22:35:55;;;;;;;1.50;0.67;;;;;;;;;;5097207;27;20615;-64
2020/12/31 22:38:22;;;;;;;2.10;0.43;;;;;;;;;;5096990;28;20777;-63
2020/12/31 22:40:49;;;;;;;0.37;0.37;;;;;;;;;;5101176;28;20833;-66
2020/12/31 22:43:15;;;;;;;0.50;0.33;;;;;;;;;;5093616;27;20185;-66
2020/12/31 22:45:42;;;;;;;2.00;0.60;;;;;;;;;;5095701;27;20929;-64
2020/12/31 22:48:09;;;;;;;9.13;0.83;;;;;;;;;;5090592;28;20197;-62
2020/12/31 22:50:35;;;;;;;8.47;7.73;;;;;;;;;;5093702;28;20185;-62
2020/12/31 22:53:02;;;;;;;1.70;0.83;;;;;;;;;;5093672;27;20170;-61
2020/12/31 22:55:29;;;;;;;3.50;0.60;;;;;;;;;;5093333;27;20541;-60
2020/12/31 22:57:57;;;;;;;3.20;0.97;;;;;;;;;;5093578;28;20679;-63
2020/12/31 23:00:26;;;;;;;0.30;0.30;;;;;;;;;;5097466;27;20181;-60
2020/12/31 23:02:53;;;;;;;1.37;1.20;;;;;;;;;;5097792;27;20211;-62
2020/12/31 23:05:19;;;;;;;11.73;1.53;;;;;;;;;;5098891;27;20261;-61
2020/12/31 23:07:46;;;;;;;0.10;0.10;;;;;;;;;;5092773;28;20190;-60
2020/12/31 23:10:14;;;;;;;0.93;0.70;;;;;;;;;;5099323;28;20181;-61
2020/12/31 23:12:40;;;;;;;2.87;0.27;;;;;;;;;;5105378;27;20307;-62
2020/12/31 23:15:09;;;;;;;8.63;1.53;;;;;;;;;;5096280;27;20265;-60
2020/12/31 23:17:36;;;;;;;6.90;1.13;;;;;;;;;;5100923;27;20181;-61
2020/12/31 23:20:04;;;;;;;2.80;0.47;;;;;;;;;;5099195;27;20649;-61
2020/12/31 23:22:30;;;;;;;3.93;0.80;;;;;;;;;;5097232;27;20185;-61
2020/12/31 23:24:57;;;;;;;1.03;0.10;;;;;;;;;;5096931;27;20185;-63
2020/12/31 23:27:24;;;;;;;17.63;13.67;;;;;;;;;;5100156;28;20169;-62
2020/12/31 23:29:50;;;;;;;6.60;3.60;;;;;;;;;;5090768;27;20190;-61
2020/12/31 23:32:17;;;;;;;2.10;1.53;;;;;;;;;;5093512;27;20188;-62
2020/12/31 23:34:44;;;;;;;3.17;2.23;;;;;;;;;;5091572;28;20964;-62
2020/12/31 23:37:12;;;;;;;0.83;0.77;;;;;;;;;;5093253;27;20836;-61
2020/12/31 23:39:40;;;;;;;7.63;4.63;;;;;;;;;;5095671;27;20204;-61
2020/12/31 23:42:08;;;;;;;3.07;2.07;;;;;;;;;;5093062;27;20184;-61
2020/12/31 23:44:34;;;;;;;2.70;0.77;;;;;;;;;;5089884;28;20181;-61
2020/12/31 23:47:02;;;;;;;1.20;0.67;;;;;;;;;;5092727;28;20233;-63
2020/12/31 23:49:28;;;;;;;2.03;1.93;;;;;;;;;;5094924;27;20193;-61
2020/12/31 23:51:55;;;;;;;7.63;1.13;;;;;;;;;;5093344;27;20192;-63
2020/12/31 23:54:21;;;;;;;10.90;0.63;;;;;;;;;;5090922;28;20762;-63
2020/12/31 23:56:49;;;;;;;1.40;0.83;;;;;;;;;;5094706;28;20262;-65
2020/12/31 23:59:18;;;;;;;2.47;0.70;;;;;;;;;;5087652;27;20185;-61
